createdAt,value
2022-08-05T00:02:19.409Z,101453.44
2022-08-05T00:04:47.308Z,101448.69
2022-08-05T00:07:58.917Z,101443.19
2022-08-05T00:10:09.190Z,101444.44
2022-08-05T00:12:35.741Z,101453.44
2022-08-05T00:15:54.913Z,101460.97
2022-08-05T00:18:08.939Z,101455.94
2022-08-05T00:20:47.973Z,101458.22
2022-08-05T00:23:15.213Z,101467.47
2022-08-05T00:25:45.467Z,101476.28
2022-08-05T00:28:12.900Z,101477.75
2022-08-05T00:30:39.357Z,101479.50
2022-08-05T00:33:15.509Z,101472.75
2022-08-05T00:36:16.503Z,101471.22
2022-08-05T00:38:41.558Z,101480.78
2022-08-05T00:41:11.745Z,101482.25
2022-08-05T00:43:47.221Z,101473.22
2022-08-05T00:46:16.200Z,101471.00
2022-08-05T00:48:51.233Z,101475.00
2022-08-05T00:51:50.596Z,101470.25
2022-08-05T00:54:05.733Z,101469.50
2022-08-05T00:56:32.237Z,101481.28
2022-08-05T00:58:59.225Z,101483.28
2022-08-05T01:01:42.729Z,101489.53
2022-08-05T01:04:14.116Z,101476.75
2022-08-05T01:06:46.684Z,101482.28
2022-08-05T01:09:17.360Z,101473.25
2022-08-05T01:11:49.400Z,101460.22
2022-08-05T01:14:40.589Z,101500.31
2022-08-05T01:17:10.794Z,101513.81
2022-08-05T01:20:00.845Z,101515.09
2022-08-05T01:22:47.603Z,101531.09
2022-08-05T01:25:54.726Z,101542.38
2022-08-05T01:28:39.414Z,101531.38
2022-08-05T01:31:26.305Z,101525.09
2022-08-05T01:34:09.294Z,101522.84
2022-08-05T01:36:46.905Z,101514.84
2022-08-05T01:39:16.163Z,101511.34
2022-08-05T01:42:04.415Z,101516.59
2022-08-05T01:44:35.253Z,101503.31
2022-08-05T01:47:02.617Z,101524.59
2022-08-05T01:50:00.174Z,101528.09
2022-08-05T01:52:22.531Z,101528.59
2022-08-05T01:54:52.999Z,101538.16
2022-08-05T01:58:29.399Z,101532.88
2022-08-05T02:00:14.133Z,101533.38
2022-08-05T02:02:51.189Z,101498.84
2022-08-05T02:05:23.471Z,101489.81
2022-08-05T02:08:00.006Z,101469.78
2022-08-05T02:10:34.785Z,101453.28
2022-08-05T02:13:16.807Z,101454.03
2022-08-05T02:15:45.775Z,101458.03
2022-08-05T02:18:28.706Z,101442.00
2022-08-05T02:21:15.210Z,101455.00
2022-08-05T02:23:46.256Z,101457.03
2022-08-05T02:26:14.951Z,101459.78
2022-08-05T02:28:45.890Z,101461.81
2022-08-05T02:31:17.138Z,101455.53
2022-08-05T02:33:57.488Z,101463.06
2022-08-05T02:36:27.537Z,101449.28
2022-08-05T02:38:56.815Z,101441.03
2022-08-05T02:41:28.561Z,101430.75
2022-08-05T02:44:12.244Z,101439.50
2022-08-05T02:46:43.936Z,101449.75
2022-08-05T02:49:36.424Z,101436.75
2022-08-05T02:52:07.755Z,101432.25
2022-08-05T02:54:37.450Z,101428.25
2022-08-05T02:58:10.464Z,101446.78
2022-08-05T02:59:57.991Z,101437.25
2022-08-05T03:02:29.579Z,101431.75
2022-08-05T03:04:57.850Z,101426.00
2022-08-05T03:08:00.736Z,101414.47
2022-08-05T03:10:22.011Z,101429.00
2022-08-05T03:12:52.807Z,101450.28
2022-08-05T03:15:20.501Z,101449.53
2022-08-05T03:17:46.983Z,101456.78
2022-08-05T03:20:13.931Z,101453.78
2022-08-05T03:22:45.938Z,101446.53
2022-08-05T03:25:32.659Z,101442.25
2022-08-05T03:28:08.520Z,101445.78
2022-08-05T03:30:36.762Z,101445.53
2022-08-05T03:33:06.328Z,101447.03
2022-08-05T03:35:40.875Z,101449.28
2022-08-05T03:38:10.921Z,101442.50
2022-08-05T03:40:41.021Z,101422.78
2022-08-05T03:43:59.131Z,101394.47
2022-08-05T03:45:57.469Z,101381.47
2022-08-05T03:48:26.733Z,101390.19
2022-08-05T03:50:59.194Z,101403.97
2022-08-05T03:55:53.226Z,101411.50
2022-08-05T03:56:47.374Z,101402.50
2022-08-05T03:59:46.984Z,101374.69
2022-08-05T04:02:17.591Z,101356.19
2022-08-05T04:05:03.386Z,101382.97
2022-08-05T04:07:30.968Z,101389.75
2022-08-05T04:09:59.998Z,101408.25
2022-08-05T04:12:29.898Z,101406.28
2022-08-05T04:14:59.424Z,101401.97
2022-08-05T04:17:55.555Z,101387.47
2022-08-05T04:20:23.224Z,101387.00
2022-08-05T04:22:50.101Z,101385.47
2022-08-05T04:25:17.111Z,101388.22
2022-08-05T04:27:57.409Z,101387.47
2022-08-05T04:30:24.721Z,101385.47
2022-08-05T04:32:53.164Z,101394.25
2022-08-05T04:35:20.062Z,101403.75
2022-08-05T04:38:02.126Z,101414.78
2022-08-05T04:40:29.601Z,101425.03
2022-08-05T04:42:56.042Z,101449.06
2022-08-05T04:45:47.878Z,101469.09
2022-08-05T04:48:18.501Z,101473.84
2022-08-05T04:51:01.906Z,101480.09
2022-08-05T04:53:36.660Z,101476.09
2022-08-05T04:56:33.516Z,101484.06
2022-08-05T04:58:53.730Z,101490.09
2022-08-05T05:02:06.326Z,101493.84
2022-08-05T05:04:06.624Z,101501.09
2022-08-05T05:06:35.842Z,101515.63
2022-08-05T05:09:14.255Z,101511.59
2022-08-05T05:11:53.901Z,101499.59
2022-08-05T05:14:27.708Z,101516.88
2022-08-05T05:16:59.911Z,101520.16
2022-08-05T05:19:36.199Z,101529.88
2022-08-05T05:22:24.473Z,101531.16
2022-08-05T05:24:58.868Z,101532.38
2022-08-05T05:27:41.217Z,101524.66
2022-08-05T05:30:15.579Z,101520.63
2022-08-05T05:32:56.311Z,101533.63
2022-08-05T05:35:23.094Z,101532.91
2022-08-05T05:37:59.381Z,101534.91
2022-08-05T05:40:29.176Z,101541.44
2022-08-05T05:42:57.158Z,101549.66
2022-08-05T05:45:24.555Z,101547.41
2022-08-05T05:48:06.314Z,101549.16
2022-08-05T05:50:34.760Z,101546.16
2022-08-05T05:53:20.993Z,101541.41
2022-08-05T05:55:52.364Z,101543.16
2022-08-05T05:58:31.380Z,101532.91
2022-08-05T06:01:12.297Z,101538.66
2022-08-05T06:04:01.327Z,101540.16
2022-08-05T06:06:33.031Z,101552.66
2022-08-05T06:09:00.307Z,101553.91
2022-08-05T06:11:29.050Z,101555.41
2022-08-05T06:13:56.640Z,101551.41
2022-08-05T06:16:28.193Z,101545.91
2022-08-05T06:19:00.935Z,101554.91
2022-08-05T06:21:36.505Z,101555.94
2022-08-05T06:24:04.570Z,101542.13
2022-08-05T06:26:33.816Z,101543.41
2022-08-05T06:29:06.039Z,101542.91
2022-08-05T06:31:48.143Z,101538.66
2022-08-05T06:34:20.163Z,101547.63
2022-08-05T06:36:56.755Z,101535.66
2022-08-05T06:39:27.110Z,101536.91
2022-08-05T06:41:54.257Z,101525.63
2022-08-05T06:44:22.014Z,101520.88
2022-08-05T06:46:51.153Z,101512.06
2022-08-05T06:49:18.843Z,101500.53
2022-08-05T06:51:47.795Z,101495.97
2022-08-05T06:54:19.131Z,101495.63
2022-08-05T06:56:54.813Z,101502.00
2022-08-05T06:59:38.896Z,101509.81
2022-08-05T07:02:08.718Z,101513.84
2022-08-05T07:04:35.330Z,101511.88
2022-08-05T07:07:03.269Z,101513.22
2022-08-05T07:09:37.328Z,101514.22
2022-08-05T07:12:07.537Z,101504.28
2022-08-05T07:14:54.113Z,101490.03
2022-08-05T07:17:58.539Z,101493.81
2022-08-05T07:20:32.098Z,101508.34
2022-08-05T07:22:54.522Z,101510.56
2022-08-05T07:25:54.153Z,101515.34
2022-08-05T07:28:11.488Z,101519.34
2022-08-05T07:30:39.845Z,101505.38
2022-08-05T07:33:10.575Z,101496.88
2022-08-05T07:36:02.191Z,101502.88
2022-08-05T07:38:34.237Z,101521.88
2022-08-05T07:42:06.836Z,101537.41
2022-08-05T07:43:58.867Z,101541.16
2022-08-05T07:46:31.071Z,101550.13
2022-08-05T07:49:03.978Z,101561.19
2022-08-05T07:51:40.942Z,101576.44
2022-08-05T07:54:22.013Z,101583.47
2022-08-05T07:57:02.876Z,101589.44
2022-08-05T07:59:40.129Z,101591.22
2022-08-05T08:02:16.632Z,101595.97
2022-08-05T08:04:49.186Z,101603.00
2022-08-05T08:07:22.855Z,101606.25
2022-08-05T08:09:52.559Z,101589.47
2022-08-05T08:12:35.134Z,101582.97
2022-08-05T08:15:14.033Z,101595.47
2022-08-05T08:17:45.993Z,101605.00
2022-08-05T08:20:43.862Z,101611.97
2022-08-05T08:23:03.821Z,101617.03
2022-08-05T08:25:59.338Z,101620.53
2022-08-05T08:28:18.752Z,101621.75
2022-08-05T08:31:04.325Z,101629.25
2022-08-05T08:33:37.456Z,101637.28
2022-08-05T08:36:38.967Z,101631.78
2022-08-05T08:38:55.393Z,101632.53
2022-08-05T08:41:26.122Z,101613.00
2022-08-05T08:45:23.384Z,101596.22
2022-08-05T08:46:59.870Z,101580.66
2022-08-05T08:50:05.891Z,101583.72
2022-08-05T08:52:24.953Z,101583.41
2022-08-05T08:54:55.545Z,101587.19
2022-08-05T08:57:24.976Z,101580.66
2022-08-05T09:00:10.005Z,101583.72
2022-08-05T09:02:37.272Z,101570.66
2022-08-05T09:05:17.493Z,101565.16
2022-08-05T09:07:57.787Z,101543.09
2022-08-05T09:10:27.129Z,101562.66
2022-08-05T09:13:04.811Z,101580.44
2022-08-05T09:15:32.143Z,101595.72
2022-08-05T09:18:06.132Z,101596.19
2022-08-05T09:20:37.403Z,101600.72
2022-08-05T09:23:18.940Z,101599.97
2022-08-05T09:26:01.913Z,101600.72
2022-08-05T09:28:33.588Z,101600.97
2022-08-05T09:31:23.417Z,101606.97
2022-08-05T09:33:58.720Z,101603.72
2022-08-05T09:36:54.154Z,101617.25
2022-08-05T09:39:23.021Z,101615.47
2022-08-05T09:42:00.739Z,101613.25
2022-08-05T09:44:34.615Z,101616.75
2022-08-05T09:47:15.388Z,101612.00
2022-08-05T09:50:01.503Z,101607.22
2022-08-05T09:52:36.274Z,101603.19
2022-08-05T09:55:57.087Z,101595.47
2022-08-05T09:57:59.989Z,101596.72
2022-08-05T10:00:29.514Z,101590.44
2022-08-05T10:02:58.264Z,101593.22
2022-08-05T10:05:28.030Z,101597.19
2022-08-05T10:08:10.987Z,101600.72
2022-08-05T10:10:50.256Z,101600.97
2022-08-05T10:13:47.175Z,101596.72
2022-08-05T10:16:37.810Z,101606.22
2022-08-05T10:19:09.514Z,101604.22
2022-08-05T10:21:40.382Z,101610.25
2022-08-05T10:24:10.532Z,101612.25
2022-08-05T10:26:51.397Z,101618.25
2022-08-05T10:29:23.458Z,101623.00
2022-08-05T10:32:53.604Z,101621.50
2022-08-05T10:34:37.791Z,101620.00
2022-08-05T10:37:07.976Z,101609.97
2022-08-05T10:39:59.492Z,101621.25
2022-08-05T10:42:33.525Z,101617.03
2022-08-05T10:45:01.886Z,101617.50
2022-08-05T10:48:29.808Z,101608.50
2022-08-05T10:51:29.771Z,101624.78
2022-08-05T10:54:06.006Z,101623.75
2022-08-05T10:56:53.459Z,101641.81
2022-08-05T11:00:03.338Z,101635.28
2022-08-05T11:02:38.157Z,101644.28
2022-08-05T11:05:11.985Z,101653.06
2022-08-05T11:08:21.675Z,101663.06
2022-08-05T11:11:01.138Z,101670.59
2022-08-05T11:13:57.655Z,101671.09
2022-08-05T11:16:47.523Z,101667.59
2022-08-05T11:20:10.556Z,101647.31
2022-08-05T11:22:39.632Z,101667.06
2022-08-05T11:26:04.343Z,101670.31
2022-08-05T11:28:23.235Z,101667.56
2022-08-05T11:30:58.467Z,101677.34
2022-08-05T11:33:46.573Z,101684.09
2022-08-05T11:36:34.385Z,101686.59
2022-08-05T11:39:10.225Z,101691.34
2022-08-05T11:42:01.648Z,101698.34
2022-08-05T11:44:52.906Z,101702.34
2022-08-05T11:47:49.998Z,101709.13
2022-08-05T11:50:15.977Z,101705.63
2022-08-05T11:52:46.181Z,101699.38
2022-08-05T11:55:17.342Z,101698.59
2022-08-05T11:58:10.188Z,101709.59
2022-08-05T12:00:38.225Z,101708.88
2022-08-05T12:03:31.556Z,101718.66
2022-08-05T12:06:06.074Z,101745.91
2022-08-05T12:08:49.713Z,101737.88
2022-08-05T12:11:28.349Z,101755.94
2022-08-05T12:14:10.781Z,101748.91
2022-08-05T12:16:46.383Z,101755.16
2022-08-05T12:20:17.247Z,101792.19
2022-08-05T12:22:09.679Z,101815.50
2022-08-05T12:24:49.535Z,101804.97
2022-08-05T12:27:33.012Z,101801.94
2022-08-05T12:30:09.524Z,101813.47
2022-08-05T12:32:52.424Z,101823.00
2022-08-05T12:35:23.415Z,101826.47
2022-08-05T12:38:08.554Z,101815.19
2022-08-05T12:40:39.663Z,101810.94
2022-08-05T12:43:20.919Z,101818.47
2022-08-05T12:45:58.312Z,101816.47
2022-08-05T12:48:32.968Z,101803.19
2022-08-05T12:52:11.210Z,101804.44
2022-08-05T12:54:14.671Z,101808.91
2022-08-05T12:56:55.220Z,101808.91
2022-08-05T12:59:46.921Z,101815.16
2022-08-05T13:02:30.483Z,101800.66
2022-08-05T13:04:59.961Z,101787.66
2022-08-05T13:07:57.715Z,101787.88
2022-08-05T13:10:19.738Z,101785.91
2022-08-05T13:12:57.581Z,101785.13
2022-08-05T13:15:41.886Z,101804.38
2022-08-05T13:18:24.008Z,101798.13
2022-08-05T13:20:53.402Z,101785.13
2022-08-05T13:23:22.584Z,101776.09
2022-08-05T13:25:59.743Z,101781.91
2022-08-05T13:28:32.196Z,101794.38
2022-08-05T13:31:10.913Z,101803.41
2022-08-05T13:34:24.931Z,101808.91
2022-08-05T13:36:34.374Z,101797.91
2022-08-05T13:39:24.134Z,101798.66
2022-08-05T13:41:51.742Z,101797.16
2022-08-05T13:44:19.731Z,101800.66
2022-08-05T13:47:04.807Z,101799.16
2022-08-05T13:49:35.250Z,101797.16
2022-08-05T13:52:16.435Z,101791.88
2022-08-05T13:54:43.438Z,101799.66
2022-08-05T13:57:20.856Z,101798.13
2022-08-05T13:59:55.370Z,101802.16
2022-08-05T14:02:26.478Z,101801.38
2022-08-05T14:05:12.044Z,101808.88
2022-08-05T14:08:00.111Z,101811.66
2022-08-05T14:10:31.021Z,101814.91
2022-08-05T14:12:58.362Z,101816.88
2022-08-05T14:16:08.908Z,101798.09
2022-08-05T14:18:13.132Z,101794.09
2022-08-05T14:20:47.319Z,101802.38
2022-08-05T14:23:19.240Z,101803.13
2022-08-05T14:25:53.939Z,101808.63
2022-08-05T14:28:27.059Z,101798.84
2022-08-05T14:30:54.964Z,101794.09
2022-08-05T14:33:22.846Z,101798.84
2022-08-05T14:35:51.858Z,101792.59
2022-08-05T14:38:33.000Z,101790.59
2022-08-05T14:41:07.400Z,101794.38
2022-08-05T14:43:57.619Z,101794.63
2022-08-05T14:46:29.076Z,101806.88
2022-08-05T14:49:06.949Z,101813.63
2022-08-05T14:51:36.382Z,101821.41
2022-08-05T14:54:26.045Z,101829.66
2022-08-05T14:56:51.080Z,101827.38
2022-08-05T14:59:21.763Z,101830.88
2022-08-05T15:01:49.799Z,101826.59
2022-08-05T15:04:22.335Z,101823.59
2022-08-05T15:06:50.797Z,101829.13
2022-08-05T15:09:52.561Z,101831.63
2022-08-05T15:12:05.731Z,101838.84
2022-08-05T15:14:34.579Z,101844.34
2022-08-05T15:17:09.792Z,101832.31
2022-08-05T15:19:55.821Z,101841.06
2022-08-05T15:22:22.571Z,101834.06
2022-08-05T15:24:54.159Z,101839.56
2022-08-05T15:27:20.718Z,101840.31
2022-08-05T15:29:47.257Z,101847.06
2022-08-05T15:32:16.482Z,101850.06
2022-08-05T15:34:43.259Z,101851.31
2022-08-05T15:37:14.814Z,101860.09
2022-08-05T15:41:01.708Z,101856.06
2022-08-05T15:42:54.187Z,101861.56
2022-08-05T15:45:17.010Z,101863.84
2022-08-05T15:47:45.677Z,101858.81
2022-08-05T15:50:15.821Z,101854.06
2022-08-05T15:52:53.013Z,101859.56
2022-08-05T15:55:25.034Z,101858.56
2022-08-05T15:58:08.234Z,101864.31
2022-08-05T16:01:03.391Z,101859.34
2022-08-05T16:03:21.275Z,101857.03
2022-08-05T16:05:52.418Z,101847.56
2022-08-05T16:08:19.331Z,101849.81
2022-08-05T16:10:45.889Z,101842.81
2022-08-05T16:13:12.583Z,101854.59
2022-08-05T16:15:51.763Z,101847.06
2022-08-05T16:18:18.704Z,101844.31
2022-08-05T16:20:46.318Z,101841.28
2022-08-05T16:23:12.901Z,101848.31
2022-08-05T16:25:40.024Z,101859.34
2022-08-05T16:28:09.815Z,101851.84
2022-08-05T16:30:37.358Z,101860.09
2022-08-05T16:33:04.071Z,101855.03
2022-08-05T16:35:32.500Z,101849.53
2022-08-05T16:38:15.980Z,101850.81
2022-08-05T16:40:55.097Z,101850.06
2022-08-05T16:43:31.014Z,101852.81
2022-08-05T16:46:07.828Z,101854.03
2022-08-05T16:48:39.500Z,101854.81
2022-08-05T16:51:09.212Z,101864.28
2022-08-05T16:54:06.230Z,101886.78
2022-08-05T16:56:24.787Z,101902.06
2022-08-05T16:58:51.367Z,101913.56
2022-08-05T17:01:18.851Z,101917.53
2022-08-05T17:03:45.819Z,101909.28
2022-08-05T17:06:12.993Z,101904.53
2022-08-05T17:08:52.676Z,101912.56
2022-08-05T17:11:25.307Z,101914.03
2022-08-05T17:14:00.550Z,101905.53
2022-08-05T17:16:36.640Z,101904.75
2022-08-05T17:19:06.996Z,101910.50
2022-08-05T17:21:35.484Z,101904.25
2022-08-05T17:24:19.569Z,101908.78
2022-08-05T17:26:50.302Z,101912.97
2022-08-05T17:29:17.234Z,101917.25
2022-08-05T17:31:58.622Z,101917.25
2022-08-05T17:34:29.697Z,101920.75
2022-08-05T17:36:58.579Z,101930.00
2022-08-05T17:39:34.109Z,101934.44
2022-08-05T17:42:19.922Z,101929.72
2022-08-05T17:44:50.485Z,101935.97
2022-08-05T17:47:21.748Z,101935.22
2022-08-05T17:49:52.023Z,101940.44
2022-08-05T17:52:32.217Z,101941.41
2022-08-05T17:54:59.507Z,101942.19
2022-08-05T17:57:26.184Z,101943.41
2022-08-05T18:00:03.685Z,101956.16
2022-08-05T18:02:34.133Z,101954.91
2022-08-05T18:05:07.615Z,101963.16
2022-08-05T18:07:41.618Z,101965.63
2022-08-05T18:10:11.011Z,101971.63
2022-08-05T18:12:38.266Z,101975.13
2022-08-05T18:15:05.926Z,101966.31
2022-08-05T18:18:00.441Z,101978.09
2022-08-05T18:20:29.024Z,101991.88
2022-08-05T18:23:00.699Z,101994.31
2022-08-05T18:25:38.880Z,101988.81
2022-08-05T18:28:09.319Z,101992.06
2022-08-05T18:30:36.310Z,101985.03
2022-08-05T18:33:06.291Z,101988.56
2022-08-05T18:36:00.583Z,102000.31
2022-08-05T18:38:26.127Z,102015.78
2022-08-05T18:41:58.534Z,102010.75
2022-08-05T18:43:43.229Z,102015.03
2022-08-05T18:46:19.779Z,102024.50
2022-08-05T18:48:48.246Z,102019.50
2022-08-05T18:52:03.179Z,102031.72
2022-08-05T18:54:27.570Z,102027.00
2022-08-05T18:56:57.225Z,102039.53
2022-08-05T18:59:43.352Z,102034.22
2022-08-05T19:02:24.600Z,102046.72
2022-08-05T19:05:02.783Z,102055.97
2022-08-05T19:07:48.098Z,102055.47
2022-08-05T19:10:16.324Z,102058.72
2022-08-05T19:12:43.795Z,102059.44
2022-08-05T19:15:57.537Z,102060.69
2022-08-05T19:18:09.199Z,102079.16
2022-08-05T19:20:41.367Z,102073.41
2022-08-05T19:24:04.543Z,102083.91
2022-08-05T19:26:01.595Z,102090.66
2022-08-05T19:28:30.262Z,102091.91
2022-08-05T19:30:56.855Z,102097.84
2022-08-05T19:33:35.015Z,102104.16
2022-08-05T19:36:02.627Z,102104.16
2022-08-05T19:38:29.218Z,102112.09
2022-08-05T19:40:55.720Z,102108.59
2022-08-05T19:44:04.560Z,102115.34
2022-08-05T19:46:16.825Z,102122.81
2022-08-05T19:48:55.418Z,102131.84
2022-08-05T19:52:04.790Z,102142.84
2022-08-05T19:54:25.419Z,102139.78
2022-08-05T19:56:57.547Z,102148.84
2022-08-05T19:59:59.391Z,102149.03
2022-08-05T20:02:10.617Z,102153.75
2022-08-05T20:04:37.779Z,102155.75
2022-08-05T20:07:13.107Z,102160.47
2022-08-05T20:09:54.807Z,102165.72
2022-08-05T20:12:24.993Z,102160.22
2022-08-05T20:14:52.990Z,102165.72
2022-08-05T20:17:23.522Z,102167.69
2022-08-05T20:19:51.069Z,102165.13
2022-08-05T20:22:23.941Z,102174.44
2022-08-05T20:24:53.685Z,102174.44
2022-08-05T20:27:21.070Z,102176.63
2022-08-05T20:29:58.406Z,102190.63
2022-08-05T20:32:26.471Z,102189.88
2022-08-05T20:34:53.323Z,102187.63
2022-08-05T20:38:06.770Z,102192.38
2022-08-05T20:40:10.311Z,102197.88
2022-08-05T20:42:37.392Z,102202.59
2022-08-05T20:45:05.427Z,102203.84
2022-08-05T20:47:32.844Z,102207.81
2022-08-05T20:50:01.967Z,102214.06
2022-08-05T20:52:29.775Z,102219.28
2022-08-05T20:55:55.623Z,102222.50
2022-08-05T20:57:44.651Z,102232.28
2022-08-05T21:00:40.809Z,102231.72
2022-08-05T21:03:06.916Z,102238.22
2022-08-05T21:05:48.423Z,102235.22
2022-08-05T21:08:32.875Z,102233.25
2022-08-05T21:11:10.331Z,102237.97
2022-08-05T21:13:47.776Z,102236.94
2022-08-05T21:16:29.963Z,102240.44
2022-08-05T21:19:00.456Z,102244.41
2022-08-05T21:21:44.131Z,102245.63
2022-08-05T21:24:12.895Z,102250.66
2022-08-05T21:26:40.075Z,102255.88
2022-08-05T21:29:09.922Z,102253.88
2022-08-05T21:31:41.263Z,102249.34
2022-08-05T21:34:10.601Z,102248.88
2022-08-05T21:36:37.906Z,102252.88
2022-08-05T21:39:04.844Z,102250.88
2022-08-05T21:41:34.209Z,102253.31
2022-08-05T21:44:04.288Z,102258.06
2022-08-05T21:46:34.226Z,102249.06
2022-08-05T21:49:02.779Z,102251.81
2022-08-05T21:52:21.871Z,102254.56
2022-08-05T21:54:31.094Z,102252.28
2022-08-05T22:00:03.280Z,102252.00
2022-08-05T22:02:32.195Z,102253.22
2022-08-05T22:04:58.837Z,102253.22
2022-08-05T22:07:39.756Z,102250.47
2022-08-05T22:10:12.344Z,102250.97
2022-08-05T22:12:40.332Z,102257.22
2022-08-05T22:15:16.666Z,102252.16
2022-08-05T22:18:00.898Z,102251.41
2022-08-05T22:20:27.459Z,102255.88
2022-08-05T22:23:21.687Z,102259.66
2022-08-05T22:26:11.102Z,102255.59
2022-08-05T22:28:38.726Z,102268.09
2022-08-05T22:31:06.285Z,102269.63
2022-08-05T22:33:56.669Z,102278.34
2022-08-05T22:36:24.077Z,102274.06
2022-08-05T22:38:51.162Z,102273.31
2022-08-05T22:42:04.820Z,102281.28
2022-08-05T22:44:08.387Z,102281.28
2022-08-05T22:46:39.430Z,102283.53
2022-08-05T22:49:06.614Z,102288.00
2022-08-05T22:52:04.672Z,102284.47
2022-08-05T22:54:19.589Z,102286.47
2022-08-05T22:56:50.250Z,102280.22
2022-08-05T22:59:45.191Z,102287.72
2022-08-05T23:02:05.644Z,102284.22
2022-08-05T23:04:34.471Z,102288.44
2022-08-05T23:07:01.362Z,102290.47
2022-08-05T23:09:53.310Z,102293.69
2022-08-05T23:12:17.735Z,102295.66
2022-08-05T23:14:44.648Z,102294.91
2022-08-05T23:17:35.006Z,102297.84
2022-08-05T23:20:10.387Z,102300.88
2022-08-05T23:22:47.135Z,102301.34
2022-08-05T23:25:17.080Z,102300.88
2022-08-05T23:28:00.387Z,102307.31
2022-08-05T23:30:29.141Z,102308.84
2022-08-05T23:32:57.735Z,102308.84
2022-08-05T23:35:28.582Z,102308.84
2022-08-05T23:38:01.054Z,102314.78
2022-08-05T23:40:27.623Z,102316.50
2022-08-05T23:42:54.145Z,102320.00
2022-08-05T23:45:20.894Z,102323.97
2022-08-05T23:47:50.471Z,102326.72
2022-08-05T23:50:20.525Z,102323.97
2022-08-05T23:52:50.555Z,102323.50
2022-08-05T23:55:18.976Z,102324.44
2022-08-05T23:57:51.246Z,102331.94
